sensor_id;sensor_type;location;lat;lon;timestamp;P1;durP1;ratioP1;P2;durP2;ratioP2
13799;SDS011;6971;50.028;9.258;2023-04-24T00:02:30;3.00;;;2.70;;
13799;SDS011;6971;50.028;9.258;2023-04-24T00:07:31;2.77;;;2.57;;
13799;SDS011;6971;50.028;9.258;2023-04-24T00:12:32;2.07;;;1.93;;
13799;SDS011;6971;50.028;9.258;2023-04-24T00:17:32;2.40;;;1.90;;
13799;SDS011;6971;50.028;9.258;2023-04-24T00:22:33;5.80;;;2.00;;
13799;SDS011;6971;50.028;9.258;2023-04-24T00:27:33;2.83;;;2.00;;
13799;SDS011;6971;50.028;9.258;2023-04-24T00:32:35;2.77;;;1.47;;
13799;SDS011;6971;50.028;9.258;2023-04-24T00:37:35;3.17;;;1.70;;
13799;SDS011;6971;50.028;9.258;2023-04-24T00:42:35;3.13;;;2.00;;
13799;SDS011;6971;50.028;9.258;2023-04-24T00:47:36;3.70;;;2.30;;
13799;SDS011;6971;50.028;9.258;2023-04-24T00:52:39;4.83;;;2.37;;
13799;SDS011;6971;50.028;9.258;2023-04-24T00:57:40;7.10;;;2.73;;
13799;SDS011;6971;50.028;9.258;2023-04-24T01:02:41;2.97;;;2.60;;
13799;SDS011;6971;50.028;9.258;2023-04-24T01:07:45;3.80;;;1.73;;
13799;SDS011;6971;50.028;9.258;2023-04-24T01:12:48;2.20;;;1.87;;
13799;SDS011;6971;50.028;9.258;2023-04-24T01:17:49;1.73;;;1.40;;
13799;SDS011;6971;50.028;9.258;2023-04-24T01:22:49;3.40;;;1.60;;
13799;SDS011;6971;50.028;9.258;2023-04-24T01:27:50;3.43;;;1.40;;
13799;SDS011;6971;50.028;9.258;2023-04-24T01:32:51;2.47;;;1.37;;
13799;SDS011;6971;50.028;9.258;2023-04-24T01:37:52;2.47;;;1.40;;
13799;SDS011;6971;50.028;9.258;2023-04-24T01:42:52;3.37;;;1.70;;
13799;SDS011;6971;50.028;9.258;2023-04-24T01:47:53;2.70;;;1.10;;
13799;SDS011;6971;50.028;9.258;2023-04-24T01:52:53;2.70;;;1.47;;
13799;SDS011;6971;50.028;9.258;2023-04-24T01:57:54;2.87;;;1.40;;
13799;SDS011;6971;50.028;9.258;2023-04-24T02:02:56;2.00;;;1.47;;
13799;SDS011;6971;50.028;9.258;2023-04-24T02:07:56;3.80;;;1.23;;
13799;SDS011;6971;50.028;9.258;2023-04-24T02:12:57;1.50;;;1.20;;
13799;SDS011;6971;50.028;9.258;2023-04-24T02:17:59;1.60;;;1.33;;
13799;SDS011;6971;50.028;9.258;2023-04-24T02:22:59;4.43;;;1.30;;
13799;SDS011;6971;50.028;9.258;2023-04-24T02:28:00;1.73;;;1.30;;
13799;SDS011;6971;50.028;9.258;2023-04-24T02:33:02;3.00;;;1.20;;
13799;SDS011;6971;50.028;9.258;2023-04-24T02:38:05;2.77;;;1.20;;
13799;SDS011;6971;50.028;9.258;2023-04-24T02:43:05;2.57;;;1.27;;
13799;SDS011;6971;50.028;9.258;2023-04-24T02:48:05;4.03;;;1.43;;
13799;SDS011;6971;50.028;9.258;2023-04-24T02:53:06;3.73;;;1.20;;
13799;SDS011;6971;50.028;9.258;2023-04-24T02:58:06;2.63;;;1.37;;
13799;SDS011;6971;50.028;9.258;2023-04-24T03:03:07;2.07;;;1.20;;
13799;SDS011;6971;50.028;9.258;2023-04-24T03:08:07;2.47;;;1.17;;
13799;SDS011;6971;50.028;9.258;2023-04-24T03:13:07;3.40;;;1.43;;
13799;SDS011;6971;50.028;9.258;2023-04-24T03:18:08;2.17;;;1.60;;
13799;SDS011;6971;50.028;9.258;2023-04-24T03:23:08;3.40;;;1.80;;
13799;SDS011;6971;50.028;9.258;2023-04-24T03:28:08;2.55;;;1.80;;
13799;SDS011;6971;50.028;9.258;2023-04-24T03:33:09;2.58;;;1.70;;
13799;SDS011;6971;50.028;9.258;2023-04-24T03:38:09;3.50;;;1.70;;
13799;SDS011;6971;50.028;9.258;2023-04-24T03:43:10;4.80;;;1.90;;
13799;SDS011;6971;50.028;9.258;2023-04-24T03:48:10;2.65;;;1.33;;
13799;SDS011;6971;50.028;9.258;2023-04-24T03:53:11;1.47;;;1.30;;
13799;SDS011;6971;50.028;9.258;2023-04-24T03:58:11;2.83;;;1.40;;
13799;SDS011;6971;50.028;9.258;2023-04-24T04:03:11;1.53;;;1.43;;
13799;SDS011;6971;50.028;9.258;2023-04-24T04:08:13;2.53;;;1.50;;
13799;SDS011;6971;50.028;9.258;2023-04-24T04:13:14;3.37;;;1.20;;
13799;SDS011;6971;50.028;9.258;2023-04-24T04:18:14;1.40;;;1.20;;
13799;SDS011;6971;50.028;9.258;2023-04-24T04:23:15;1.23;;;1.10;;
13799;SDS011;6971;50.028;9.258;2023-04-24T04:28:15;3.50;;;1.40;;
13799;SDS011;6971;50.028;9.258;2023-04-24T04:33:20;1.70;;;1.50;;
13799;SDS011;6971;50.028;9.258;2023-04-24T04:38:21;1.63;;;1.30;;
13799;SDS011;6971;50.028;9.258;2023-04-24T04:43:21;2.30;;;1.30;;
13799;SDS011;6971;50.028;9.258;2023-04-24T04:48:21;2.08;;;1.35;;
13799;SDS011;6971;50.028;9.258;2023-04-24T04:53:22;1.83;;;1.53;;
13799;SDS011;6971;50.028;9.258;2023-04-24T04:58:22;2.73;;;1.70;;
13799;SDS011;6971;50.028;9.258;2023-04-24T05:03:23;3.73;;;1.70;;
13799;SDS011;6971;50.028;9.258;2023-04-24T05:08:24;2.17;;;1.97;;
13799;SDS011;6971;50.028;9.258;2023-04-24T05:13:25;1.97;;;1.80;;
13799;SDS011;6971;50.028;9.258;2023-04-24T05:18:25;2.77;;;2.33;;
13799;SDS011;6971;50.028;9.258;2023-04-24T05:23:26;2.47;;;2.17;;
13799;SDS011;6971;50.028;9.258;2023-04-24T05:28:26;2.63;;;2.43;;
13799;SDS011;6971;50.028;9.258;2023-04-24T05:33:30;3.83;;;2.20;;
13799;SDS011;6971;50.028;9.258;2023-04-24T05:38:30;2.80;;;2.60;;
13799;SDS011;6971;50.028;9.258;2023-04-24T05:43:31;2.80;;;2.60;;
13799;SDS011;6971;50.028;9.258;2023-04-24T05:48:31;3.43;;;3.13;;
13799;SDS011;6971;50.028;9.258;2023-04-24T05:53:31;4.13;;;3.10;;
13799;SDS011;6971;50.028;9.258;2023-04-24T05:58:32;3.63;;;3.33;;
13799;SDS011;6971;50.028;9.258;2023-04-24T06:03:32;4.53;;;3.23;;
13799;SDS011;6971;50.028;9.258;2023-04-24T06:08:33;5.53;;;3.33;;
13799;SDS011;6971;50.028;9.258;2023-04-24T06:13:34;5.27;;;3.53;;
13799;SDS011;6971;50.028;9.258;2023-04-24T06:18:34;6.30;;;4.17;;
13799;SDS011;6971;50.028;9.258;2023-04-24T06:23:35;3.60;;;3.30;;
13799;SDS011;6971;50.028;9.258;2023-04-24T06:28:36;5.07;;;3.77;;
13799;SDS011;6971;50.028;9.258;2023-04-24T06:33:36;5.00;;;3.50;;
13799;SDS011;6971;50.028;9.258;2023-04-24T06:38:36;3.67;;;3.20;;
13799;SDS011;6971;50.028;9.258;2023-04-24T06:43:37;4.77;;;3.47;;
13799;SDS011;6971;50.028;9.258;2023-04-24T06:48:38;3.10;;;2.80;;
13799;SDS011;6971;50.028;9.258;2023-04-24T06:53:39;2.97;;;2.77;;
13799;SDS011;6971;50.028;9.258;2023-04-24T06:58:39;3.37;;;3.07;;
13799;SDS011;6971;50.028;9.258;2023-04-24T07:03:40;10.27;;;2.87;;
13799;SDS011;6971;50.028;9.258;2023-04-24T07:08:40;2.97;;;2.77;;
13799;SDS011;6971;50.028;9.258;2023-04-24T07:13:41;5.17;;;2.97;;
13799;SDS011;6971;50.028;9.258;2023-04-24T07:18:42;4.30;;;3.50;;
13799;SDS011;6971;50.028;9.258;2023-04-24T07:23:42;3.97;;;3.00;;
13799;SDS011;6971;50.028;9.258;2023-04-24T07:28:43;4.10;;;3.70;;
13799;SDS011;6971;50.028;9.258;2023-04-24T07:33:43;3.80;;;3.37;;
13799;SDS011;6971;50.028;9.258;2023-04-24T07:38:44;4.17;;;3.77;;
13799;SDS011;6971;50.028;9.258;2023-04-24T07:43:45;4.30;;;3.30;;
13799;SDS011;6971;50.028;9.258;2023-04-24T07:48:46;3.50;;;3.20;;
13799;SDS011;6971;50.028;9.258;2023-04-24T07:53:47;5.27;;;2.87;;
13799;SDS011;6971;50.028;9.258;2023-04-24T07:58:51;4.07;;;3.67;;
13799;SDS011;6971;50.028;9.258;2023-04-24T08:03:51;4.77;;;4.37;;
13799;SDS011;6971;50.028;9.258;2023-04-24T08:08:52;4.93;;;4.53;;
13799;SDS011;6971;50.028;9.258;2023-04-24T08:13:52;8.63;;;4.30;;
13799;SDS011;6971;50.028;9.258;2023-04-24T08:18:52;4.33;;;3.90;;
13799;SDS011;6971;50.028;9.258;2023-04-24T08:23:53;5.07;;;4.23;;
13799;SDS011;6971;50.028;9.258;2023-04-24T08:28:53;4.77;;;4.17;;
13799;SDS011;6971;50.028;9.258;2023-04-24T08:33:54;4.40;;;4.00;;
13799;SDS011;6971;50.028;9.258;2023-04-24T08:38:54;5.20;;;3.60;;
13799;SDS011;6971;50.028;9.258;2023-04-24T08:43:55;4.83;;;3.60;;
13799;SDS011;6971;50.028;9.258;2023-04-24T08:48:58;3.37;;;3.07;;
13799;SDS011;6971;50.028;9.258;2023-04-24T08:53:58;3.63;;;3.33;;
13799;SDS011;6971;50.028;9.258;2023-04-24T08:58:59;3.53;;;3.20;;
13799;SDS011;6971;50.028;9.258;2023-04-24T09:04:01;6.10;;;4.80;;
13799;SDS011;6971;50.028;9.258;2023-04-24T09:09:02;10.40;;;6.53;;
13799;SDS011;6971;50.028;9.258;2023-04-24T09:14:03;7.67;;;6.13;;
13799;SDS011;6971;50.028;9.258;2023-04-24T09:19:04;3.37;;;2.67;;
13799;SDS011;6971;50.028;9.258;2023-04-24T09:24:08;4.60;;;3.40;;
13799;SDS011;6971;50.028;9.258;2023-04-24T09:29:18;10.03;;;3.87;;
13799;SDS011;6971;50.028;9.258;2023-04-24T09:34:22;4.90;;;3.53;;
13799;SDS011;6971;50.028;9.258;2023-04-24T09:39:23;4.73;;;2.93;;
13799;SDS011;6971;50.028;9.258;2023-04-24T09:44:24;3.90;;;3.00;;
13799;SDS011;6971;50.028;9.258;2023-04-24T09:49:27;4.07;;;3.60;;
13799;SDS011;6971;50.028;9.258;2023-04-24T09:54:28;8.20;;;4.00;;
13799;SDS011;6971;50.028;9.258;2023-04-24T09:59:30;6.53;;;5.10;;
13799;SDS011;6971;50.028;9.258;2023-04-24T10:04:30;5.70;;;3.70;;
13799;SDS011;6971;50.028;9.258;2023-04-24T10:09:30;5.20;;;3.73;;
13799;SDS011;6971;50.028;9.258;2023-04-24T10:14:31;3.70;;;2.93;;
13799;SDS011;6971;50.028;9.258;2023-04-24T10:19:32;4.43;;;3.27;;
13799;SDS011;6971;50.028;9.258;2023-04-24T10:24:33;2.90;;;2.70;;
13799;SDS011;6971;50.028;9.258;2023-04-24T10:29:36;2.93;;;2.70;;
13799;SDS011;6971;50.028;9.258;2023-04-24T10:34:38;3.87;;;2.70;;
13799;SDS011;6971;50.028;9.258;2023-04-24T10:39:39;3.80;;;3.40;;
13799;SDS011;6971;50.028;9.258;2023-04-24T10:44:40;3.67;;;3.27;;
13799;SDS011;6971;50.028;9.258;2023-04-24T10:49:41;3.70;;;2.83;;
13799;SDS011;6971;50.028;9.258;2023-04-24T10:54:45;5.73;;;3.17;;
13799;SDS011;6971;50.028;9.258;2023-04-24T11:05:11;4.67;;;3.30;;
13799;SDS011;6971;50.028;9.258;2023-04-24T11:10:25;3.60;;;3.10;;
13799;SDS011;6971;50.028;9.258;2023-04-24T11:15:26;3.67;;;3.27;;
13799;SDS011;6971;50.028;9.258;2023-04-24T11:20:26;3.87;;;2.90;;
13799;SDS011;6971;50.028;9.258;2023-04-24T11:25:28;5.13;;;3.70;;
13799;SDS011;6971;50.028;9.258;2023-04-24T11:30:32;3.27;;;2.93;;
13799;SDS011;6971;50.028;9.258;2023-04-24T11:35:39;3.47;;;2.77;;
13799;SDS011;6971;50.028;9.258;2023-04-24T11:40:40;3.40;;;2.70;;
13799;SDS011;6971;50.028;9.258;2023-04-24T11:45:47;4.10;;;3.70;;
13799;SDS011;6971;50.028;9.258;2023-04-24T11:50:50;5.20;;;3.80;;
13799;SDS011;6971;50.028;9.258;2023-04-24T11:55:50;4.30;;;3.90;;
13799;SDS011;6971;50.028;9.258;2023-04-24T12:00:57;6.60;;;4.77;;
13799;SDS011;6971;50.028;9.258;2023-04-24T12:06:11;4.70;;;4.20;;
13799;SDS011;6971;50.028;9.258;2023-04-24T12:11:14;7.80;;;4.80;;
13799;SDS011;6971;50.028;9.258;2023-04-24T12:16:15;3.47;;;3.17;;
13799;SDS011;6971;50.028;9.258;2023-04-24T12:21:16;4.70;;;4.30;;
13799;SDS011;6971;50.028;9.258;2023-04-24T12:26:18;4.10;;;2.70;;
13799;SDS011;6971;50.028;9.258;2023-04-24T12:31:20;3.17;;;2.80;;
13799;SDS011;6971;50.028;9.258;2023-04-24T12:36:21;3.10;;;2.80;;
13799;SDS011;6971;50.028;9.258;2023-04-24T12:41:21;3.83;;;3.10;;
13799;SDS011;6971;50.028;9.258;2023-04-24T12:46:22;6.23;;;3.47;;
13799;SDS011;6971;50.028;9.258;2023-04-24T12:51:22;5.17;;;4.00;;
13799;SDS011;6971;50.028;9.258;2023-04-24T12:56:24;5.07;;;4.57;;
13799;SDS011;6971;50.028;9.258;2023-04-24T13:01:24;4.00;;;3.70;;
13799;SDS011;6971;50.028;9.258;2023-04-24T13:06:24;6.33;;;4.23;;
13799;SDS011;6971;50.028;9.258;2023-04-24T13:11:26;4.57;;;3.87;;
13799;SDS011;6971;50.028;9.258;2023-04-24T13:16:26;4.83;;;4.23;;
13799;SDS011;6971;50.028;9.258;2023-04-24T13:21:27;5.27;;;4.70;;
13799;SDS011;6971;50.028;9.258;2023-04-24T13:26:28;6.77;;;3.50;;
13799;SDS011;6971;50.028;9.258;2023-04-24T13:31:29;5.53;;;3.63;;
13799;SDS011;6971;50.028;9.258;2023-04-24T13:36:29;4.70;;;3.90;;
13799;SDS011;6971;50.028;9.258;2023-04-24T13:41:30;4.07;;;3.33;;
13799;SDS011;6971;50.028;9.258;2023-04-24T13:46:32;5.20;;;3.80;;
13799;SDS011;6971;50.028;9.258;2023-04-24T13:51:32;4.17;;;3.77;;
13799;SDS011;6971;50.028;9.258;2023-04-24T13:56:33;7.87;;;4.93;;
13799;SDS011;6971;50.028;9.258;2023-04-24T14:01:34;6.27;;;4.67;;
13799;SDS011;6971;50.028;9.258;2023-04-24T14:06:35;6.53;;;5.00;;
13799;SDS011;6971;50.028;9.258;2023-04-24T14:11:35;7.53;;;5.70;;
13799;SDS011;6971;50.028;9.258;2023-04-24T14:16:35;6.07;;;4.70;;
13799;SDS011;6971;50.028;9.258;2023-04-24T14:21:36;5.43;;;4.87;;
13799;SDS011;6971;50.028;9.258;2023-04-24T14:26:36;6.17;;;4.63;;
13799;SDS011;6971;50.028;9.258;2023-04-24T14:31:37;5.70;;;5.07;;
13799;SDS011;6971;50.028;9.258;2023-04-24T14:36:37;10.23;;;7.53;;
13799;SDS011;6971;50.028;9.258;2023-04-24T14:41:37;5.33;;;4.27;;
13799;SDS011;6971;50.028;9.258;2023-04-24T14:46:39;4.27;;;3.40;;
13799;SDS011;6971;50.028;9.258;2023-04-24T14:51:39;8.03;;;5.70;;
13799;SDS011;6971;50.028;9.258;2023-04-24T14:56:40;7.20;;;5.03;;
13799;SDS011;6971;50.028;9.258;2023-04-24T15:01:42;7.30;;;5.03;;
13799;SDS011;6971;50.028;9.258;2023-04-24T15:06:43;6.13;;;5.47;;
13799;SDS011;6971;50.028;9.258;2023-04-24T15:11:43;6.60;;;5.27;;
13799;SDS011;6971;50.028;9.258;2023-04-24T15:16:44;8.27;;;5.73;;
13799;SDS011;6971;50.028;9.258;2023-04-24T15:21:44;8.60;;;6.20;;
13799;SDS011;6971;50.028;9.258;2023-04-24T15:26:45;6.63;;;5.90;;
13799;SDS011;6971;50.028;9.258;2023-04-24T15:31:46;7.20;;;5.87;;
13799;SDS011;6971;50.028;9.258;2023-04-24T15:36:46;8.93;;;7.70;;
13799;SDS011;6971;50.028;9.258;2023-04-24T15:41:47;7.53;;;5.73;;
13799;SDS011;6971;50.028;9.258;2023-04-24T15:46:47;7.83;;;5.17;;
13799;SDS011;6971;50.028;9.258;2023-04-24T15:51:48;5.83;;;5.10;;
13799;SDS011;6971;50.028;9.258;2023-04-24T15:56:49;6.63;;;5.00;;
13799;SDS011;6971;50.028;9.258;2023-04-24T16:01:50;17.37;;;11.27;;
13799;SDS011;6971;50.028;9.258;2023-04-24T16:06:51;28.77;;;16.83;;
13799;SDS011;6971;50.028;9.258;2023-04-24T16:11:52;4.60;;;4.10;;
13799;SDS011;6971;50.028;9.258;2023-04-24T16:16:52;7.53;;;5.20;;
13799;SDS011;6971;50.028;9.258;2023-04-24T16:21:55;10.00;;;6.10;;
13799;SDS011;6971;50.028;9.258;2023-04-24T16:26:57;6.57;;;5.60;;
13799;SDS011;6971;50.028;9.258;2023-04-24T16:31:57;6.50;;;5.37;;
13799;SDS011;6971;50.028;9.258;2023-04-24T16:36:57;6.67;;;4.93;;
13799;SDS011;6971;50.028;9.258;2023-04-24T16:41:58;7.80;;;5.77;;
13799;SDS011;6971;50.028;9.258;2023-04-24T16:46:58;8.83;;;6.87;;
13799;SDS011;6971;50.028;9.258;2023-04-24T16:51:59;6.77;;;5.60;;
13799;SDS011;6971;50.028;9.258;2023-04-24T16:57:00;4.93;;;4.17;;
13799;SDS011;6971;50.028;9.258;2023-04-24T17:02:01;6.07;;;4.73;;
13799;SDS011;6971;50.028;9.258;2023-04-24T17:07:01;6.07;;;4.50;;
13799;SDS011;6971;50.028;9.258;2023-04-24T17:12:02;8.53;;;4.50;;
13799;SDS011;6971;50.028;9.258;2023-04-24T17:17:02;5.40;;;4.60;;
13799;SDS011;6971;50.028;9.258;2023-04-24T17:22:03;5.40;;;4.33;;
13799;SDS011;6971;50.028;9.258;2023-04-24T17:27:03;5.40;;;4.07;;
13799;SDS011;6971;50.028;9.258;2023-04-24T17:32:04;8.73;;;5.37;;
13799;SDS011;6971;50.028;9.258;2023-04-24T17:37:04;4.43;;;3.97;;
13799;SDS011;6971;50.028;9.258;2023-04-24T17:42:05;6.47;;;5.87;;
13799;SDS011;6971;50.028;9.258;2023-04-24T17:47:05;7.40;;;5.43;;
13799;SDS011;6971;50.028;9.258;2023-04-24T17:52:06;7.87;;;6.90;;
13799;SDS011;6971;50.028;9.258;2023-04-24T17:57:06;9.87;;;7.57;;
13799;SDS011;6971;50.028;9.258;2023-04-24T18:02:07;7.80;;;5.40;;
13799;SDS011;6971;50.028;9.258;2023-04-24T18:07:07;6.03;;;4.20;;
13799;SDS011;6971;50.028;9.258;2023-04-24T18:12:08;5.10;;;4.60;;
13799;SDS011;6971;50.028;9.258;2023-04-24T18:17:09;6.50;;;5.33;;
13799;SDS011;6971;50.028;9.258;2023-04-24T18:22:09;7.73;;;4.97;;
13799;SDS011;6971;50.028;9.258;2023-04-24T18:27:10;4.70;;;4.30;;
13799;SDS011;6971;50.028;9.258;2023-04-24T18:32:10;6.13;;;4.90;;
13799;SDS011;6971;50.028;9.258;2023-04-24T18:37:11;5.67;;;4.70;;
13799;SDS011;6971;50.028;9.258;2023-04-24T18:42:11;7.40;;;6.30;;
13799;SDS011;6971;50.028;9.258;2023-04-24T18:47:11;6.43;;;5.77;;
13799;SDS011;6971;50.028;9.258;2023-04-24T18:52:12;5.63;;;5.10;;
13799;SDS011;6971;50.028;9.258;2023-04-24T18:57:12;8.77;;;6.67;;
13799;SDS011;6971;50.028;9.258;2023-04-24T19:02:13;6.93;;;5.93;;
13799;SDS011;6971;50.028;9.258;2023-04-24T19:07:13;6.87;;;5.97;;
13799;SDS011;6971;50.028;9.258;2023-04-24T19:12:14;5.63;;;4.80;;
13799;SDS011;6971;50.028;9.258;2023-04-24T19:17:14;5.17;;;4.67;;
13799;SDS011;6971;50.028;9.258;2023-04-24T19:22:21;5.83;;;5.23;;
13799;SDS011;6971;50.028;9.258;2023-04-24T19:27:21;5.87;;;5.03;;
13799;SDS011;6971;50.028;9.258;2023-04-24T19:32:22;7.63;;;5.43;;
13799;SDS011;6971;50.028;9.258;2023-04-24T19:37:22;5.93;;;5.30;;
13799;SDS011;6971;50.028;9.258;2023-04-24T19:42:23;6.20;;;5.07;;
13799;SDS011;6971;50.028;9.258;2023-04-24T19:47:23;7.10;;;6.10;;
13799;SDS011;6971;50.028;9.258;2023-04-24T19:52:23;9.60;;;5.93;;
13799;SDS011;6971;50.028;9.258;2023-04-24T19:57:24;8.17;;;5.83;;
13799;SDS011;6971;50.028;9.258;2023-04-24T20:02:24;7.57;;;6.20;;
13799;SDS011;6971;50.028;9.258;2023-04-24T20:07:25;8.87;;;6.97;;
13799;SDS011;6971;50.028;9.258;2023-04-24T20:12:25;6.33;;;5.70;;
13799;SDS011;6971;50.028;9.258;2023-04-24T20:17:26;8.10;;;6.80;;
13799;SDS011;6971;50.028;9.258;2023-04-24T20:22:26;7.13;;;6.43;;
13799;SDS011;6971;50.028;9.258;2023-04-24T20:27:27;8.13;;;6.57;;
13799;SDS011;6971;50.028;9.258;2023-04-24T20:32:29;7.10;;;6.40;;
13799;SDS011;6971;50.028;9.258;2023-04-24T20:37:30;8.60;;;7.30;;
13799;SDS011;6971;50.028;9.258;2023-04-24T20:42:31;9.03;;;6.80;;
13799;SDS011;6971;50.028;9.258;2023-04-24T20:47:31;8.23;;;7.37;;
13799;SDS011;6971;50.028;9.258;2023-04-24T20:52:32;9.50;;;7.20;;
13799;SDS011;6971;50.028;9.258;2023-04-24T20:57:32;9.20;;;7.07;;
13799;SDS011;6971;50.028;9.258;2023-04-24T21:02:33;8.00;;;6.80;;
13799;SDS011;6971;50.028;9.258;2023-04-24T21:07:33;8.77;;;7.87;;
13799;SDS011;6971;50.028;9.258;2023-04-24T21:12:34;7.73;;;6.93;;
13799;SDS011;6971;50.028;9.258;2023-04-24T21:17:34;7.88;;;7.03;;
13799;SDS011;6971;50.028;9.258;2023-04-24T21:22:34;6.63;;;6.03;;
13799;SDS011;6971;50.028;9.258;2023-04-24T21:27:35;7.70;;;7.00;;
13799;SDS011;6971;50.028;9.258;2023-04-24T21:32:37;7.13;;;6.43;;
13799;SDS011;6971;50.028;9.258;2023-04-24T21:37:39;6.97;;;6.27;;
13799;SDS011;6971;50.028;9.258;2023-04-24T21:42:40;7.23;;;6.17;;
13799;SDS011;6971;50.028;9.258;2023-04-24T21:47:41;6.77;;;6.00;;
13799;SDS011;6971;50.028;9.258;2023-04-24T21:52:41;6.72;;;6.05;;
13799;SDS011;6971;50.028;9.258;2023-04-24T21:57:42;8.50;;;6.40;;
13799;SDS011;6971;50.028;9.258;2023-04-24T22:02:42;6.23;;;5.63;;
13799;SDS011;6971;50.028;9.258;2023-04-24T22:07:43;7.00;;;6.10;;
13799;SDS011;6971;50.028;9.258;2023-04-24T22:12:44;7.70;;;5.77;;
13799;SDS011;6971;50.028;9.258;2023-04-24T22:17:44;6.87;;;6.17;;
13799;SDS011;6971;50.028;9.258;2023-04-24T22:22:45;6.23;;;5.63;;
13799;SDS011;6971;50.028;9.258;2023-04-24T22:27:45;7.40;;;6.23;;
13799;SDS011;6971;50.028;9.258;2023-04-24T22:32:46;7.03;;;6.33;;
13799;SDS011;6971;50.028;9.258;2023-04-24T22:37:50;6.87;;;6.17;;
13799;SDS011;6971;50.028;9.258;2023-04-24T22:42:55;6.47;;;5.87;;
13799;SDS011;6971;50.028;9.258;2023-04-24T22:47:55;6.67;;;5.93;;
13799;SDS011;6971;50.028;9.258;2023-04-24T22:52:56;7.00;;;5.83;;
13799;SDS011;6971;50.028;9.258;2023-04-24T22:57:56;7.23;;;6.53;;
13799;SDS011;6971;50.028;9.258;2023-04-24T23:02:57;7.87;;;5.30;;
13799;SDS011;6971;50.028;9.258;2023-04-24T23:07:57;7.07;;;5.90;;
13799;SDS011;6971;50.028;9.258;2023-04-24T23:12:57;8.77;;;6.97;;
13799;SDS011;6971;50.028;9.258;2023-04-24T23:17:58;8.13;;;6.43;;
13799;SDS011;6971;50.028;9.258;2023-04-24T23:22:59;6.77;;;6.07;;
13799;SDS011;6971;50.028;9.258;2023-04-24T23:27:59;7.73;;;6.27;;
13799;SDS011;6971;50.028;9.258;2023-04-24T23:33:00;8.27;;;6.82;;
13799;SDS011;6971;50.028;9.258;2023-04-24T23:38:01;7.70;;;6.73;;
13799;SDS011;6971;50.028;9.258;2023-04-24T23:43:01;8.33;;;7.13;;
13799;SDS011;6971;50.028;9.258;2023-04-24T23:48:01;15.17;;;11.67;;
13799;SDS011;6971;50.028;9.258;2023-04-24T23:53:03;14.90;;;11.83;;
13799;SDS011;6971;50.028;9.258;2023-04-24T23:58:03;12.03;;;10.83;;
